Time;durP1;ratioP1;P1;durP2;ratioP2;P2;SDS_P1;SDS_P2;PMS_P1;PMS_P2;Temp;Humidity;BMP_temperature;BMP_pressure;BME280_temperature;BME280_humidity;BME280_pressure;Samples;Min_cycle;Max_cycle;Signal;HPM_P1;HPM_P2
2021/04/20 00:01:01;;;;;;;31.92;15.63;;;7.00;99.90;;;;;;5016668;28;20050;-81
2021/04/20 00:03:29;;;;;;;26.83;14.80;;;7.10;99.90;;;;;;5017877;28;20029;-81
2021/04/20 00:05:57;;;;;;;29.10;14.32;;;7.10;99.90;;;;;;5018034;28;20048;-81
2021/04/20 00:08:25;;;;;;;33.20;14.88;;;7.10;99.90;;;;;;5016699;28;20066;-82
2021/04/20 00:10:52;;;;;;;33.00;17.45;;;7.10;99.90;;;;;;5018080;28;20026;-81
2021/04/20 00:13:20;;;;;;;31.65;16.58;;;7.10;99.90;;;;;;5017832;28;20029;-82
2021/04/20 00:15:48;;;;;;;29.23;16.27;;;7.10;99.90;;;;;;5016554;28;20426;-82
2021/04/20 00:18:15;;;;;;;33.13;16.88;;;7.00;99.90;;;;;;5017388;28;20123;-82
2021/04/20 00:20:43;;;;;;;32.50;17.38;;;7.00;99.90;;;;;;5017322;28;20029;-82
2021/04/20 00:23:11;;;;;;;31.65;16.90;;;7.00;99.90;;;;;;5018242;28;20018;-82
2021/04/20 00:25:38;;;;;;;31.67;16.40;;;7.00;99.90;;;;;;5018712;28;20029;-81
2021/04/20 00:28:06;;;;;;;33.38;15.70;;;6.90;99.90;;;;;;5017345;28;20032;-81
2021/04/20 00:30:35;;;;;;;30.20;15.20;;;6.80;99.90;;;;;;5018633;28;20082;-81
2021/04/20 00:33:03;;;;;;;26.90;14.43;;;6.70;99.90;;;;;;5018746;28;20032;-82
2021/04/20 00:35:30;;;;;;;24.05;13.05;;;6.60;99.90;;;;;;5017279;28;20391;-81
2021/04/20 00:37:58;;;;;;;25.27;13.20;;;6.50;99.90;;;;;;5017272;28;20464;-81
2021/04/20 00:40:26;;;;;;;30.85;14.25;;;6.40;99.90;;;;;;5017496;28;20030;-81
2021/04/20 00:42:56;;;;;;;31.55;15.70;;;6.30;99.90;;;;;;5017699;28;20102;-81
2021/04/20 00:45:31;;;;;;;30.10;15.35;;;6.20;99.90;;;;;;5015997;28;20418;-81
2021/04/20 00:47:59;;;;;;;31.88;16.13;;;6.10;99.90;;;;;;5016121;28;20029;-81
2021/04/20 00:50:29;;;;;;;30.77;16.90;;;6.10;99.90;;;;;;5015963;28;20114;-81
2021/04/20 00:52:57;;;;;;;32.80;15.50;;;6.10;99.90;;;;;;5017336;28;20083;-83
2021/04/20 00:55:25;;;;;;;33.38;15.93;;;6.00;99.90;;;;;;5015900;28;20069;-83
2021/04/20 00:57:52;;;;;;;33.78;14.98;;;6.00;99.90;;;;;;5017470;28;20030;-83
2021/04/20 01:00:31;;;;;;;34.17;15.07;;;5.90;99.90;;;;;;5025359;28;20045;-83
2021/04/20 01:03:01;;;;;;;29.35;14.88;;;5.90;99.90;;;;;;5020135;28;20028;-83
2021/04/20 01:05:35;;;;;;;26.95;13.70;;;5.80;99.90;;;;;;5037673;28;20413;-83
2021/04/20 01:08:10;;;;;;;32.83;13.43;;;5.70;99.90;;;;;;5020191;28;20021;-83
2021/04/20 01:10:44;;;;;;;27.60;14.43;;;5.70;99.90;;;;;;5037772;28;20025;-83
2021/04/20 01:13:12;;;;;;;28.75;14.93;;;5.60;99.90;;;;;;5019958;28;20030;-83
2021/04/20 01:15:44;;;;;;;29.75;14.38;;;5.50;99.90;;;;;;5019725;28;20306;-83
2021/04/20 01:18:21;;;;;;;28.75;14.93;;;5.50;99.90;;;;;;5036537;28;20021;-83
2021/04/20 01:20:53;;;;;;;31.85;14.18;;;5.40;99.90;;;;;;5036437;28;20021;-83
2021/04/20 01:23:35;;;;;;;27.95;14.20;;;5.40;99.90;;;;;;5019008;28;20026;-83
2021/04/20 01:26:04;;;;;;;28.02;14.75;;;5.40;99.90;;;;;;5036424;28;20024;-83
2021/04/20 01:28:33;;;;;;;28.83;14.35;;;5.30;99.90;;;;;;5036842;28;20025;-83
2021/04/20 01:31:01;;;;;;;27.42;14.07;;;5.20;99.90;;;;;;5036663;28;20025;-83
2021/04/20 01:33:29;;;;;;;32.67;14.95;;;5.20;99.90;;;;;;5036621;28;20075;-83
2021/04/20 01:35:57;;;;;;;34.13;16.77;;;5.10;99.90;;;;;;5039803;28;20024;-83
2021/04/20 01:38:24;;;;;;;39.72;17.60;;;5.10;99.90;;;;;;5040990;28;20072;-83
2021/04/20 01:40:54;;;;;;;39.30;17.63;;;5.10;99.90;;;;;;5023651;28;20418;-83
2021/04/20 01:43:22;;;;;;;28.00;15.35;;;5.00;99.90;;;;;;5023715;28;20026;-83
2021/04/20 01:45:49;;;;;;;31.90;13.55;;;5.00;99.90;;;;;;5041191;28;20014;-83
2021/04/20 01:48:17;;;;;;;28.27;12.13;;;4.90;99.90;;;;;;5041278;28;20102;-83
2021/04/20 01:50:44;;;;;;;27.30;11.52;;;4.90;99.90;;;;;;5023543;28;20175;-83
2021/04/20 01:53:12;;;;;;;33.15;13.80;;;4.80;99.90;;;;;;5023442;28;20477;-83
2021/04/20 01:55:40;;;;;;;33.65;16.67;;;4.70;99.90;;;;;;5023384;28;20120;-83
2021/04/20 01:58:08;;;;;;;35.22;16.73;;;4.70;99.90;;;;;;5022536;28;20026;-83
2021/04/20 02:00:38;;;;;;;40.92;18.80;;;4.70;99.90;;;;;;5019006;28;20049;-83
2021/04/20 02:03:09;;;;;;;33.38;15.63;;;4.70;99.90;;;;;;5019031;28;20026;-83
2021/04/20 02:05:38;;;;;;;37.40;16.23;;;4.70;99.90;;;;;;5018849;28;20026;-83
2021/04/20 02:08:06;;;;;;;31.15;13.98;;;4.70;99.90;;;;;;5018953;28;20030;-83
2021/04/20 02:10:34;;;;;;;25.52;12.35;;;4.60;99.90;;;;;;5018895;28;20303;-83
2021/04/20 02:13:02;;;;;;;27.25;12.23;;;4.60;99.90;;;;;;5018880;28;20033;-83
2021/04/20 02:15:29;;;;;;;30.95;12.18;;;4.50;99.90;;;;;;5018934;28;20467;-83
2021/04/20 02:17:57;;;;;;;23.92;12.52;;;4.50;99.90;;;;;;5018840;28;20036;-83
2021/04/20 02:20:26;;;;;;;24.83;11.75;;;4.40;99.90;;;;;;5019552;28;20425;-83
2021/04/20 02:22:55;;;;;;;27.92;13.30;;;4.40;99.90;;;;;;5019774;28;20029;-83
2021/04/20 02:25:24;;;;;;;32.60;13.93;;;4.30;99.90;;;;;;5019583;28;20080;-83
2021/04/20 02:27:53;;;;;;;33.58;14.60;;;4.30;99.90;;;;;;5019554;28;20330;-83
2021/04/20 02:30:22;;;;;;;33.15;15.13;;;4.20;99.90;;;;;;5019505;28;20117;-83
2021/04/20 02:32:50;;;;;;;31.08;14.68;;;4.20;99.90;;;;;;5019566;28;20450;-82
2021/04/20 02:35:19;;;;;;;33.42;14.82;;;4.20;99.90;;;;;;5020474;28;20096;-83
2021/04/20 02:37:47;;;;;;;34.42;14.48;;;4.20;99.90;;;;;;5019991;28;20087;-83
2021/04/20 02:40:20;;;;;;;31.95;14.05;;;4.10;99.90;;;;;;5019405;28;20026;-83
2021/04/20 02:42:53;;;;;;;31.50;13.88;;;4.10;99.90;;;;;;5019619;28;20157;-83
2021/04/20 02:45:25;;;;;;;28.75;13.45;;;4.20;99.90;;;;;;5018867;28;20300;-83
2021/04/20 02:47:54;;;;;;;32.78;14.00;;;4.10;99.90;;;;;;5019330;28;20438;-83
2021/04/20 02:50:25;;;;;;;30.13;13.00;;;4.10;99.90;;;;;;5018104;28;20117;-83
2021/04/20 02:52:56;;;;;;;28.60;13.73;;;4.00;99.90;;;;;;5019408;28;20105;-83
2021/04/20 02:55:24;;;;;;;25.55;12.10;;;4.00;99.90;;;;;;5018109;28;20021;-83
2021/04/20 02:57:56;;;;;;;27.70;11.25;;;4.00;99.90;;;;;;5019330;28;20026;-83
2021/04/20 03:00:26;;;;;;;31.10;14.73;;;3.90;99.90;;;;;;5027521;28;20499;-82
2021/04/20 03:03:04;;;;;;;30.77;13.68;;;3.80;99.90;;;;;;5022231;28;20086;-82
2021/04/20 03:05:31;;;;;;;25.27;12.23;;;3.80;99.90;;;;;;5022147;28;20025;-83
2021/04/20 03:07:59;;;;;;;21.75;11.48;;;3.70;99.90;;;;;;5039691;28;20030;-83
2021/04/20 03:10:28;;;;;;;29.60;11.98;;;3.70;99.90;;;;;;5021939;28;20030;-83
2021/04/20 03:12:57;;;;;;;24.65;11.60;;;3.60;99.90;;;;;;5022220;28;20047;-82
2021/04/20 03:15:24;;;;;;;30.77;14.43;;;3.50;99.90;;;;;;5039446;28;20022;-83
2021/04/20 03:17:52;;;;;;;31.60;14.85;;;3.40;99.90;;;;;;5039413;28;20025;-83
2021/04/20 03:20:20;;;;;;;32.47;14.50;;;3.30;99.90;;;;;;5021077;28;20022;-83
2021/04/20 03:22:50;;;;;;;41.30;16.15;;;3.20;99.90;;;;;;5038444;28;20105;-83
2021/04/20 03:25:20;;;;;;;41.45;16.75;;;3.20;99.90;;;;;;5020800;28;20022;-83
2021/04/20 03:27:51;;;;;;;37.50;15.57;;;3.20;99.90;;;;;;5038642;28;20045;-83
2021/04/20 03:30:23;;;;;;;33.45;14.45;;;3.20;99.90;;;;;;5020677;28;20329;-83
2021/04/20 03:33:04;;;;;;;32.97;14.57;;;3.20;99.90;;;;;;5020747;28;20049;-83
2021/04/20 03:35:43;;;;;;;32.03;13.73;;;3.20;99.90;;;;;;5020640;28;20084;-83
2021/04/20 03:38:50;;;;;;;37.58;15.82;;;3.20;99.90;;;;;;5038453;28;20022;-83
2021/04/20 03:41:57;;;;;;;34.67;16.00;;;3.30;99.90;;;;;;4989681;28;20033;-83
2021/04/20 03:44:43;;;;;;;34.78;15.50;;;3.30;99.90;;;;;;5006206;28;20033;-83
2021/04/20 03:47:21;;;;;;;38.60;14.80;;;3.30;99.90;;;;;;5039148;28;20365;-83
2021/04/20 03:49:51;;;;;;;32.97;14.85;;;3.40;99.90;;;;;;5038714;28;20296;-83
2021/04/20 03:52:26;;;;;;;33.70;14.82;;;3.40;99.90;;;;;;5021279;28;20057;-83
2021/04/20 03:54:56;;;;;;;35.42;14.10;;;3.30;99.90;;;;;;5039052;28;20028;-83
2021/04/20 03:57:27;;;;;;;28.52;14.10;;;3.30;99.90;;;;;;5020466;28;20394;-83
2021/04/20 04:00:01;;;;;;;27.63;12.38;;;3.30;99.90;;;;;;5038410;28;20037;-83
2021/04/20 04:02:31;;;;;;;24.30;11.63;;;3.30;99.90;;;;;;5020159;28;20414;-83
2021/04/20 04:05:01;;;;;;;28.45;11.93;;;3.20;99.90;;;;;;5037881;28;20031;-83
2021/04/20 04:07:31;;;;;;;33.80;13.05;;;3.20;99.90;;;;;;5037807;28;20437;-83
2021/04/20 04:10:00;;;;;;;27.70;13.00;;;3.10;99.90;;;;;;5020050;28;20136;-83
2021/04/20 04:12:27;;;;;;;29.85;14.10;;;3.10;99.90;;;;;;5037521;28;20017;-83
2021/04/20 04:14:56;;;;;;;33.90;15.48;;;3.10;99.90;;;;;;5037497;28;20033;-83
2021/04/20 04:17:26;;;;;;;37.00;16.52;;;3.10;99.90;;;;;;5037579;28;20033;-83
2021/04/20 04:19:55;;;;;;;39.80;16.73;;;3.10;99.90;;;;;;5037363;28;20029;-83
2021/04/20 04:22:32;;;;;;;35.47;16.25;;;3.10;99.90;;;;;;5037522;28;20026;-83
2021/04/20 04:25:04;;;;;;;35.03;14.43;;;3.10;99.90;;;;;;5020717;28;20022;-83
2021/04/20 04:27:39;;;;;;;35.83;15.20;;;3.10;99.90;;;;;;5020802;28;20090;-83
2021/04/20 04:30:11;;;;;;;33.97;16.02;;;3.20;99.90;;;;;;5038055;28;20017;-83
2021/04/20 04:32:43;;;;;;;31.67;13.65;;;3.20;99.90;;;;;;5038351;28;20022;-83
2021/04/20 04:35:12;;;;;;;33.60;14.80;;;3.20;99.90;;;;;;5020424;28;20121;-83
2021/04/20 04:37:41;;;;;;;36.03;15.07;;;3.20;99.90;;;;;;5037864;28;20061;-83
2021/04/20 04:40:09;;;;;;;31.25;13.57;;;3.20;99.90;;;;;;5037925;28;20022;-83
2021/04/20 04:42:38;;;;;;;35.72;14.93;;;3.20;99.90;;;;;;5019566;28;20372;-83
2021/04/20 04:45:08;;;;;;;35.17;13.73;;;3.30;99.90;;;;;;5036879;28;20024;-83
2021/04/20 04:47:39;;;;;;;28.15;12.98;;;3.30;99.90;;;;;;5036977;28;20079;-83
2021/04/20 04:50:10;;;;;;;28.15;12.60;;;3.30;99.90;;;;;;5036730;28;20021;-83
2021/04/20 04:52:40;;;;;;;26.45;13.85;;;3.30;99.90;;;;;;5037264;28;20031;-84
2021/04/20 04:55:08;;;;;;;29.77;13.98;;;3.30;99.90;;;;;;5019298;28;20072;-83
2021/04/20 04:57:36;;;;;;;38.15;16.25;;;3.30;99.90;;;;;;5019169;28;20029;-83
2021/04/20 05:00:08;;;;;;;32.15;14.93;;;3.40;99.90;;;;;;5015773;28;20050;-83
2021/04/20 05:02:40;;;;;;;28.63;13.65;;;3.40;99.90;;;;;;5017375;28;20092;-83
2021/04/20 05:05:09;;;;;;;36.88;13.02;;;3.40;99.90;;;;;;5018005;28;20018;-83
2021/04/20 05:07:37;;;;;;;25.65;11.93;;;3.40;99.90;;;;;;5017838;28;20022;-83
2021/04/20 05:10:08;;;;;;;29.45;12.38;;;3.50;99.90;;;;;;5016516;28;20029;-83
2021/04/20 05:12:36;;;;;;;30.15;14.23;;;3.50;99.90;;;;;;5018011;28;20030;-85
2021/04/20 05:15:15;;;;;;;34.33;14.93;;;3.50;99.90;;;;;;5016916;28;20145;-87
2021/04/20 05:17:44;;;;;;;35.55;15.70;;;3.60;99.90;;;;;;5017827;28;20022;-85
2021/04/20 05:20:17;;;;;;;40.67;16.90;;;3.60;99.90;;;;;;5016510;28;20034;-85
2021/04/20 05:22:45;;;;;;;31.20;14.55;;;3.70;99.90;;;;;;5016963;28;20032;-85
2021/04/20 05:25:15;;;;;;;33.20;14.45;;;3.70;99.90;;;;;;5016691;28;20303;-85
2021/04/20 05:27:49;;;;;;;38.35;16.38;;;3.80;99.90;;;;;;5016703;28;20112;-85
2021/04/20 05:30:18;;;;;;;29.90;14.85;;;3.90;99.90;;;;;;5016708;28;20026;-85
2021/04/20 05:32:52;;;;;;;24.70;12.57;;;4.00;99.90;;;;;;5016976;28;20057;-84
2021/04/20 05:35:21;;;;;;;34.22;13.95;;;4.00;99.90;;;;;;5015373;28;20058;-86
2021/04/20 05:37:50;;;;;;;31.13;13.55;;;4.10;99.90;;;;;;5015464;28;20330;-84
2021/04/20 05:40:23;;;;;;;31.77;15.07;;;4.20;99.90;;;;;;5016591;28;20022;-83
2021/04/20 05:42:57;;;;;;;32.97;14.73;;;4.30;99.90;;;;;;5016911;28;20018;-84
2021/04/20 05:45:25;;;;;;;37.70;15.07;;;4.30;99.90;;;;;;5016447;28;20022;-81
2021/04/20 05:47:54;;;;;;;40.33;17.98;;;4.40;99.90;;;;;;5017777;28;20415;-82
2021/04/20 05:50:24;;;;;;;40.22;17.60;;;4.50;99.90;;;;;;5016095;28;20045;-80
2021/04/20 05:52:51;;;;;;;35.58;17.60;;;4.60;99.90;;;;;;5016172;28;20308;-79
2021/04/20 05:55:20;;;;;;;38.45;17.90;;;4.70;99.90;;;;;;5016108;28;20326;-79
2021/04/20 05:57:48;;;;;;;47.08;20.38;;;4.70;99.90;;;;;;5017226;28;20025;-75
2021/04/20 06:00:18;;;;;;;47.53;19.35;;;4.80;99.90;;;;;;5015970;28;20126;-78
2021/04/20 06:02:51;;;;;;;46.95;20.75;;;4.90;99.90;;;;;;5015508;28;20488;-80
2021/04/20 06:05:22;;;;;;;45.13;21.63;;;5.10;99.90;;;;;;5015228;28;20041;-80
2021/04/20 06:08:02;;;;;;;45.28;20.80;;;5.20;99.90;;;;;;5015360;28;20348;-80
2021/04/20 06:10:31;;;;;;;51.53;21.23;;;5.30;99.90;;;;;;5015999;28;20112;-80
2021/04/20 06:12:59;;;;;;;49.97;21.50;;;5.40;99.90;;;;;;5015217;28;20422;-83
2021/04/20 06:15:28;;;;;;;48.10;22.13;;;5.50;99.90;;;;;;5015138;28;20030;-86
2021/04/20 06:17:56;;;;;;;50.85;21.90;;;5.60;99.90;;;;;;5016256;28;20034;-87
2021/04/20 06:20:25;;;;;;;49.97;22.00;;;5.70;99.90;;;;;;5016172;28;20048;-92
2021/04/20 06:22:55;;;;;;;53.83;23.95;;;5.80;99.90;;;;;;5018904;28;20369;-81
2021/04/20 06:25:24;;;;;;;50.47;24.08;;;6.00;99.90;;;;;;5019667;28;20127;-86
2021/04/20 06:27:52;;;;;;;49.80;23.35;;;6.10;99.90;;;;;;5019814;28;20053;-81
2021/04/20 06:30:21;;;;;;;51.15;23.40;;;6.20;99.90;;;;;;5019615;28;20030;-82
2021/04/20 06:32:49;;;;;;;58.78;25.25;;;6.30;99.90;;;;;;5020854;28;20026;-83
2021/04/20 06:35:19;;;;;;;60.40;26.58;;;6.40;99.90;;;;;;5020520;28;20322;-76
2021/04/20 06:37:49;;;;;;;55.97;23.70;;;6.60;99.90;;;;;;5019595;28;20072;-87
2021/04/20 06:40:33;;;;;;;56.03;24.67;;;6.70;99.90;;;;;;5020358;28;20026;-75
2021/04/20 06:43:11;;;;;;;52.83;25.60;;;6.80;99.90;;;;;;5019734;28;20029;-76
2021/04/20 06:45:59;;;;;;;55.55;24.77;;;7.00;99.90;;;;;;5019608;28;20014;-78
2021/04/20 06:49:06;;;;;;;61.33;27.45;;;7.10;99.90;;;;;;5019488;28;20037;-79
2021/04/20 06:51:43;;;;;;;59.10;27.77;;;7.30;99.90;;;;;;5019565;28;20052;-78
2021/04/20 06:54:20;;;;;;;59.05;28.40;;;7.40;99.90;;;;;;5019189;28;20326;-78
2021/04/20 06:57:18;;;;;;;58.63;26.77;;;7.50;99.90;;;;;;5018199;28;20029;-78
2021/04/20 07:00:25;;;;;;;61.00;29.25;;;7.60;99.90;;;;;;5017151;28;20127;-75
2021/04/20 07:03:16;;;;;;;51.45;27.40;;;7.80;99.90;;;;;;4962222;28;20050;-75
2021/04/20 07:06:23;;;;;;;63.90;29.90;;;8.00;99.90;;;;;;5037736;28;20068;-83
2021/04/20 07:09:02;;;;;;;61.65;29.05;;;8.20;99.90;;;;;;5039622;28;20017;-77
2021/04/20 07:11:33;;;;;;;56.63;27.30;;;8.40;99.90;;;;;;5039601;28;20109;-78
2021/04/20 07:14:05;;;;;;;57.53;26.75;;;8.50;99.90;;;;;;5022007;28;20022;-77
2021/04/20 07:16:52;;;;;;;52.88;26.75;;;8.60;99.90;;;;;;5039831;28;20105;-76
2021/04/20 07:19:56;;;;;;;55.88;26.73;;;8.80;99.90;;;;;;5023073;28;20025;-78
2021/04/20 07:22:53;;;;;;;51.28;26.65;;;8.90;99.90;;;;;;5039233;28;20017;-78
2021/04/20 07:25:59;;;;;;;44.80;23.88;;;9.10;99.90;;;;;;5038714;28;20406;-79
2021/04/20 07:28:53;;;;;;;51.05;26.13;;;9.30;99.90;;;;;;5038329;28;20329;-74
2021/04/20 07:31:33;;;;;;;46.42;24.60;;;9.40;99.90;;;;;;5020689;28;20368;-79
2021/04/20 07:34:15;;;;;;;43.35;23.92;;;9.50;99.90;;;;;;5038691;28;20075;-78
2021/04/20 07:37:09;;;;;;;48.22;25.42;;;9.70;99.90;;;;;;5038264;28;20021;-80
2021/04/20 07:39:48;;;;;;;50.28;24.20;;;9.90;99.90;;;;;;5038418;28;20053;-76
2021/04/20 07:42:57;;;;;;;47.75;24.48;;;10.00;99.90;;;;;;5038339;28;20025;-76
2021/04/20 07:45:49;;;;;;;41.63;22.38;;;10.20;99.90;;;;;;5038710;28;20029;-79
2021/04/20 07:48:42;;;;;;;44.88;24.50;;;10.40;99.90;;;;;;5038952;28;20437;-79
2021/04/20 07:51:40;;;;;;;42.20;23.25;;;10.50;99.90;;;;;;5021082;28;20029;-79
2021/04/20 07:54:19;;;;;;;46.60;24.02;;;10.70;99.90;;;;;;5021249;28;20026;-81
2021/04/20 07:57:04;;;;;;;42.58;24.38;;;10.90;99.90;;;;;;5021193;28;20329;-80
2021/04/20 08:00:09;;;;;;;39.33;23.10;;;11.00;99.90;;;;;;5038793;28;20429;-78
2021/04/20 08:02:57;;;;;;;43.10;22.75;;;11.20;99.90;;;;;;5035355;28;20445;-77
2021/04/20 08:05:39;;;;;;;39.72;21.90;;;11.30;99.90;;;;;;5037641;28;20116;-79
2021/04/20 08:08:13;;;;;;;40.28;23.50;;;11.40;99.90;;;;;;5020067;28;20029;-78
2021/04/20 08:11:05;;;;;;;38.85;23.27;;;11.50;99.90;;;;;;5020004;28;20357;-77
2021/04/20 08:13:50;;;;;;;42.67;25.20;;;11.60;99.90;;;;;;5038277;28;20302;-78
2021/04/20 08:16:57;;;;;;;39.92;22.58;;;11.60;99.90;;;;;;5037733;28;20467;-80
2021/04/20 08:19:43;;;;;;;37.10;22.05;;;11.70;99.90;;;;;;5034307;28;20037;-80
2021/04/20 08:22:16;;;;;;;43.92;21.63;;;11.80;99.90;;;;;;5019759;28;20041;-82
2021/04/20 08:24:58;;;;;;;31.73;17.08;;;11.90;99.90;;;;;;5021058;28;20032;-78
2021/04/20 08:28:06;;;;;;;35.28;20.50;;;12.00;99.90;;;;;;5044899;28;20026;-76
2021/04/20 08:30:51;;;;;;;32.17;15.55;;;12.10;99.90;;;;;;4977376;28;20062;-76
2021/04/20 08:33:35;;;;;;;21.52;11.70;;;12.10;99.90;;;;;;5036013;28;20045;-76
2021/04/20 08:36:33;;;;;;;23.30;11.88;;;12.10;99.90;;;;;;5019625;28;20022;-76
2021/04/20 08:39:41;;;;;;;19.85;11.10;;;12.20;99.70;;;;;;5037390;28;20018;-76
2021/04/20 08:42:20;;;;;;;23.08;9.73;;;12.30;97.50;;;;;;5006660;28;20430;-81
2021/04/20 08:45:08;;;;;;;16.60;8.43;;;12.40;96.00;;;;;;5019015;28;20025;-77
2021/04/20 08:47:41;;;;;;;16.45;8.10;;;12.50;95.20;;;;;;5037082;28;20040;-77
2021/04/20 08:50:23;;;;;;;12.85;6.72;;;12.60;91.70;;;;;;5036772;28;20045;-81
2021/04/20 08:53:25;;;;;;;14.32;6.28;;;12.60;88.40;;;;;;5037321;28;20032;-79
2021/04/20 08:56:15;;;;;;;24.33;11.48;;;12.70;87.50;;;;;;5037452;28;20024;-78
2021/04/20 08:58:49;;;;;;;11.85;6.55;;;12.80;87.40;;;;;;5037486;28;20417;-78
2021/04/20 09:01:44;;;;;;;14.10;6.18;;;12.90;85.90;;;;;;5037442;28;20046;-78
2021/04/20 09:04:38;;;;;;;11.85;5.30;;;13.00;74.90;;;;;;5037498;28;20108;-78
2021/04/20 09:07:41;;;;;;;10.75;5.18;;;13.10;78.20;;;;;;5037718;28;20025;-78
2021/04/20 09:10:17;;;;;;;11.07;4.60;;;13.20;75.90;;;;;;4991925;28;20034;-78
2021/04/20 09:12:48;;;;;;;11.80;5.97;;;13.20;77.70;;;;;;5036789;28;20018;-78
2021/04/20 09:15:19;;;;;;;11.07;5.47;;;13.30;72.90;;;;;;5036783;28;20376;-78
2021/04/20 09:17:51;;;;;;;11.32;5.32;;;13.40;75.00;;;;;;5036507;28;20074;-78
2021/04/20 09:20:36;;;;;;;11.48;6.13;;;13.40;74.30;;;;;;5018982;28;20033;-78
2021/04/20 09:23:30;;;;;;;14.65;6.18;;;13.50;72.90;;;;;;5036415;28;20104;-78
2021/04/20 09:26:10;;;;;;;14.32;6.53;;;13.60;73.30;;;;;;5036515;28;20357;-77
2021/04/20 09:28:50;;;;;;;12.65;7.50;;;13.70;71.90;;;;;;5036366;28;20341;-76
2021/04/20 09:31:19;;;;;;;15.10;8.40;;;13.90;73.00;;;;;;5018940;28;20029;-77
2021/04/20 09:33:54;;;;;;;15.82;7.70;;;14.10;73.90;;;;;;5019604;28;20022;-77
2021/04/20 09:36:23;;;;;;;14.27;7.13;;;14.10;74.10;;;;;;5037212;28;20116;-78
2021/04/20 09:38:51;;;;;;;13.35;8.35;;;14.20;74.10;;;;;;5037398;28;20025;-78
2021/04/20 09:41:28;;;;;;;15.57;7.40;;;14.20;74.00;;;;;;5019577;28;20037;-78
2021/04/20 09:44:24;;;;;;;14.85;7.05;;;14.30;71.70;;;;;;5037153;28;20151;-79
2021/04/20 09:47:36;;;;;;;22.65;13.60;;;14.40;72.80;;;;;;5019575;28;20029;-79
2021/04/20 09:50:19;;;;;;;27.42;14.23;;;14.50;81.40;;;;;;5005017;28;20421;-78
2021/04/20 09:53:00;;;;;;;24.13;12.80;;;14.60;83.80;;;;;;5018637;28;20026;-75
2021/04/20 09:55:56;;;;;;;13.07;8.07;;;14.60;82.90;;;;;;5037443;28;20028;-77
2021/04/20 09:58:26;;;;;;;12.83;7.37;;;14.70;77.10;;;;;;5039933;28;20048;-77
2021/04/20 10:00:55;;;;;;;17.95;6.30;;;14.80;72.10;;;;;;5019110;28;20050;-80
2021/04/20 10:03:32;;;;;;;17.55;8.07;;;14.80;72.70;;;;;;5020029;28;20064;-78
2021/04/20 10:06:12;;;;;;;11.38;6.75;;;14.90;71.50;;;;;;5020108;28;20030;-79
2021/04/20 10:09:16;;;;;;;12.90;4.25;;;15.00;66.60;;;;;;5018829;28;20430;-78
2021/04/20 10:12:14;;;;;;;12.07;3.85;;;15.00;65.50;;;;;;5019177;28;20025;-78
2021/04/20 10:15:00;;;;;;;11.90;3.60;;;15.10;60.00;;;;;;4951727;28;20031;-78
2021/04/20 10:18:05;;;;;;;9.20;4.78;;;14.90;62.50;;;;;;5020707;28;20060;-78
2021/04/20 10:21:07;;;;;;;7.35;3.13;;;15.00;59.90;;;;;;5019734;28;20077;-77
2021/04/20 10:23:59;;;;;;;12.20;3.30;;;15.00;58.00;;;;;;5020752;28;20061;-80
2021/04/20 10:26:57;;;;;;;7.70;3.50;;;15.00;58.50;;;;;;5019478;28;20329;-75
2021/04/20 10:29:24;;;;;;;;;;;15.00;56.10;;;;;;5021035;28;20420;-80
2021/04/20 10:32:05;;;;;;;8.15;4.20;;;15.00;58.60;;;;;;5019234;28;20331;-80
2021/04/20 10:34:36;;;;;;;9.27;4.18;;;15.00;60.00;;;;;;5019597;28;20101;-78
2021/04/20 10:37:04;;;;;;;8.15;4.00;;;15.00;61.30;;;;;;5019597;28;20528;-77
2021/04/20 10:39:32;;;;;;;9.88;5.03;;;15.00;59.60;;;;;;5019748;28;20034;-77
2021/04/20 10:42:00;;;;;;;12.88;5.00;;;15.10;60.10;;;;;;5019938;28;20018;-78
2021/04/20 10:44:32;;;;;;;9.90;5.38;;;15.10;61.60;;;;;;5019399;28;20034;-77
2021/04/20 10:47:01;;;;;;;10.88;5.03;;;15.20;61.70;;;;;;5019553;28;20314;-77
2021/04/20 10:49:31;;;;;;;8.65;4.32;;;15.30;64.10;;;;;;5019168;28;20315;-77
2021/04/20 10:52:00;;;;;;;8.80;3.97;;;15.40;61.80;;;;;;5019496;28;20022;-77
2021/04/20 10:54:39;;;;;;;7.20;3.67;;;15.50;58.00;;;;;;5020088;28;20373;-82
2021/04/20 10:57:12;;;;;;;7.75;4.32;;;15.60;56.80;;;;;;5020302;28;20021;-78
2021/04/20 10:59:41;;;;;;;7.18;3.63;;;15.70;57.80;;;;;;5020799;28;20018;-78
2021/04/20 11:02:21;;;;;;;9.10;4.47;;;15.80;59.20;;;;;;5040220;28;20325;-77
2021/04/20 11:04:54;;;;;;;10.63;4.43;;;15.90;57.80;;;;;;5040244;28;20056;-79
2021/04/20 11:07:27;;;;;;;12.52;3.50;;;16.00;56.40;;;;;;5039881;28;20026;-79
2021/04/20 11:10:09;;;;;;;9.15;4.28;;;16.10;56.90;;;;;;5039977;28;20406;-78
2021/04/20 11:12:51;;;;;;;8.60;3.72;;;16.30;55.70;;;;;;5022124;28;20032;-78
2021/04/20 11:15:30;;;;;;;7.88;4.47;;;16.40;58.40;;;;;;5038764;28;20037;-78
2021/04/20 11:18:01;;;;;;;10.93;4.50;;;16.60;56.80;;;;;;5021205;28;20021;-78
2021/04/20 11:20:42;;;;;;;9.05;4.30;;;16.70;58.00;;;;;;5021075;28;20401;-79
2021/04/20 11:23:10;;;;;;;8.98;4.80;;;16.90;55.40;;;;;;5038690;28;20029;-81
2021/04/20 11:25:53;;;;;;;10.88;5.05;;;16.90;56.30;;;;;;5038739;28;20030;-80
2021/04/20 11:28:47;;;;;;;9.27;4.47;;;17.00;57.50;;;;;;5038589;28;20112;-80
2021/04/20 11:31:27;;;;;;;11.65;4.80;;;17.10;59.10;;;;;;5038355;28;20025;-79
2021/04/20 11:34:01;;;;;;;8.35;5.20;;;17.10;57.70;;;;;;5038695;28;20283;-79
2021/04/20 11:37:02;;;;;;;10.70;4.70;;;17.20;58.50;;;;;;5039559;28;20048;-80
2021/04/20 11:39:50;;;;;;;8.40;4.78;;;17.20;59.80;;;;;;5039342;28;20029;-81
2021/04/20 11:42:35;;;;;;;8.15;4.90;;;17.30;58.20;;;;;;5021469;28;20025;-79
2021/04/20 11:45:13;;;;;;;11.27;4.65;;;17.30;58.50;;;;;;5039139;28;20417;-79
2021/04/20 11:47:59;;;;;;;10.02;5.22;;;17.30;58.00;;;;;;5021263;28;20037;-79
2021/04/20 11:50:35;;;;;;;8.52;4.90;;;17.40;59.00;;;;;;5021276;28;20026;-80
2021/04/20 11:53:12;;;;;;;9.50;4.40;;;17.30;57.90;;;;;;5020844;28;20302;-80
2021/04/20 11:55:51;;;;;;;9.68;3.72;;;17.30;58.80;;;;;;5038057;28;20036;-79
2021/04/20 11:58:24;;;;;;;10.50;4.50;;;17.30;57.40;;;;;;5020260;28;20022;-80
2021/04/20 12:01:01;;;;;;;9.40;4.57;;;17.20;57.90;;;;;;5016836;28;20052;-79
2021/04/20 12:03:34;;;;;;;12.65;4.65;;;17.20;58.80;;;;;;5016888;28;20026;-78
2021/04/20 12:06:03;;;;;;;10.32;5.22;;;17.30;58.20;;;;;;5018385;28;20030;-79
2021/04/20 12:08:42;;;;;;;12.07;5.38;;;17.20;58.20;;;;;;5017869;28;20026;-78
2021/04/20 12:11:12;;;;;;;13.30;4.65;;;17.30;59.90;;;;;;5016754;28;20029;-79
2021/04/20 12:13:50;;;;;;;11.65;5.47;;;17.30;61.00;;;;;;5016725;28;20358;-79
2021/04/20 12:16:18;;;;;;;9.73;4.97;;;17.40;58.10;;;;;;5018652;28;20097;-78
2021/04/20 12:18:49;;;;;;;8.70;5.22;;;17.40;58.30;;;;;;5017806;28;20105;-79
2021/04/20 12:21:29;;;;;;;10.98;4.80;;;17.40;58.30;;;;;;5017317;28;20022;-79
2021/04/20 12:24:02;;;;;;;9.45;4.95;;;17.40;59.30;;;;;;5017385;28;20325;-78
2021/04/20 12:26:32;;;;;;;9.00;4.53;;;17.40;59.30;;;;;;5018507;28;20026;-78
2021/04/20 12:29:10;;;;;;;8.07;3.85;;;17.40;60.40;;;;;;5018383;28;20026;-79
2021/04/20 12:31:38;;;;;;;9.80;3.72;;;17.50;58.70;;;;;;5018663;28;20018;-80
2021/04/20 12:34:07;;;;;;;8.25;4.10;;;17.60;59.30;;;;;;5018080;28;20022;-80
2021/04/20 12:36:52;;;;;;;11.32;4.40;;;17.70;58.50;;;;;;5017438;28;20041;-79
2021/04/20 12:39:50;;;;;;;10.05;4.18;;;17.80;59.00;;;;;;5017312;28;20050;-80
2021/04/20 12:42:21;;;;;;;8.68;4.43;;;17.90;59.00;;;;;;5017250;28;20421;-79
2021/04/20 12:44:55;;;;;;;8.13;5.22;;;18.10;59.20;;;;;;5017477;28;20022;-80
2021/04/20 12:47:34;;;;;;;6.88;4.25;;;18.20;58.00;;;;;;5015887;28;20323;-79
2021/04/20 12:50:06;;;;;;;10.50;3.97;;;18.30;59.20;;;;;;5017474;28;20393;-80
2021/04/20 12:52:35;;;;;;;9.70;4.50;;;18.30;58.00;;;;;;5016656;28;20026;-80
2021/04/20 12:55:10;;;;;;;10.85;4.78;;;18.50;56.70;;;;;;5017374;28;20057;-80
2021/04/20 12:57:46;;;;;;;9.63;4.50;;;18.70;57.30;;;;;;5018093;28;20049;-80
2021/04/20 13:00:27;;;;;;;17.83;4.50;;;18.80;56.70;;;;;;5019852;28;20037;-79
2021/04/20 13:02:58;;;;;;;8.43;4.30;;;19.10;56.30;;;;;;5037691;28;20112;-80
2021/04/20 13:05:36;;;;;;;7.95;4.25;;;19.40;55.20;;;;;;5020130;28;20326;-79
2021/04/20 13:08:08;;;;;;;9.45;4.63;;;19.80;54.40;;;;;;5037464;28;20418;-80
2021/04/20 13:10:37;;;;;;;9.65;3.50;;;20.30;51.70;;;;;;5037760;28;20029;-81
2021/04/20 13:13:10;;;;;;;13.68;3.70;;;21.00;48.50;;;;;;5037502;28;20025;-80
2021/04/20 13:15:39;;;;;;;7.85;3.92;;;21.50;49.10;;;;;;5037035;28;20029;-80
2021/04/20 13:18:19;;;;;;;13.85;4.13;;;22.00;49.60;;;;;;5019038;28;20049;-83
2021/04/20 13:20:55;;;;;;;10.15;3.88;;;22.60;47.10;;;;;;5036514;28;20025;-79
2021/04/20 13:23:36;;;;;;;9.68;4.85;;;23.10;46.90;;;;;;5019213;28;20314;-79